Relevés horaires Schaffen (Belgique)


Relevés horaires à Schaffen - Dimanche 04 Avr. 2021
Heure UTC1 Température [°C] Vent [km/h] Hum. [%] Pres.4 [hPa] Visi. [Km] Nébu. [octa] Préc.5 [mm] Cond.
2m. Res. Ros. Dir.2 Vit. Moy. Raf.3
23:00 4.8 4.8 1.5 SSO 3.7 -- 9.3 79 1015.8(-3.3/3h) 15 -- -- --
22:00 4.9 4.9 1.3 SO 3.7 -- 7.4 77 1017.2(-3.0/3h) 15 -- -- --
21:00 4.9 4.9 1.2 SO 3.7 -- 5.6 77 1018.3(-2.0/3h) 11 -- -- --
20:00 5.1 5.1 0.9 NNO 1.9 -- 5.6 74 1019.2(-2.0/3h) 12 -- -- --
19:00 6.0 6.0 0.9 O 3.7 -- 5.6 70 1020.3(-1.4/3h) 18 -- -- --
18:00 6.7 6.7 0.8 O 3.7 -- 11.1 66 1020.5(-2.0/3h) 20 -- -- --
17:00 8.1 8.1 1.2 ONO 3.7 -- 9.3 62 1021.2(-2.3/3h) 19 -- -- --
16:00 8.7 8.7 1.8 NNO 3.7 -- 11.1 62 1021.7(-2.7/3h) 16 -- -- --
15:00 8.5 7.9 1.0 ONO 5.6 -- 11.1 59 1022.5(-2.9/3h) 13 -- -- --
14:00 8.8 8.8 0.8 O 3.7 -- 11.1 57 1023.6(-2.5/3h) 16 -- -- --
13:00 8.4 8.4 0.7 O 3.7 -- 9.3 58 1024.5(-2.1/3h) 18 -- -- --
12:00 7.5 7.5 0.7 NNO 1.9 -- 7.4 62 1025.5(-1.3/3h) 19 -- -- --
11:00 7.0 7.0 0.7 NNO 1.9 -- 5.6 64 1026.2(-0.7/3h) 19 -- -- --
10:00 6.1 6.1 0.3 NO 3.7 -- 7.4 66 1026.7(-0.2/3h) 19 -- -- --
09:00 5.9 4.9 0.2 NNO 5.6 -- 7.4 67 1027(-0.2/3h) 20 -- -- --
08:00 5.4 5.4 0.6 NNO 1.9 -- 3.7 71 1027(0.0/3h) 20 -- -- --
07:00 5.2 5.2 0.7 NNO 1.9 -- 3.7 73 1027(-0.2/3h) 19 -- -- --
06:00 4.5 4.5 0.6 NNO 1.9 -- 5.6 76 1027.2(-0.4/3h) 19 -- -- --
05:00 4.3 4.3 0.4 NNO 1.9 -- 3.7 76 1027(-0.8/3h) 18 -- -- --
04:00 4.5 4.5 -- NNO 1.9 -- 1.9 -- 1027.2(-0.7/3h) 20 -- -- --
03:00 4.3 4.3 -- NNO 1.9 -- 5.6 -- 1027.7(-0.8/3h) 19 -- -- --
02:00 4.3 4.3 -- NNO 1.9 -- 1.9 -- 1028(-0.6/3h) 19 -- -- --
01:00 4.0 4.0 0.1 NNO 1.9 -- 5.6 76 1028(-0.4/3h) 19 -- -- --
00:00 3.7 3.7 -0.1 NNO 3.7 -- 16.7 76 1028.5(0.1/3h) 18 -- -- --

1 Coordinated Universal Time. Actuellement il est 19:00 locale et 17:00 UTC.

2 Le vent souffle depuis la direction indiquée vers la direction oposée.

3 Les rafales max. sont disponible 40 min après l'heure du relevé.

4 Pour les stations d'altitude (plus de 600m) le géopotentiel du niveau le plus proche de la pression obligatoire est indiqué.

5 Les stations disposant d'un diffuseur peuvent indiquer "trace". Cela signifie que des précipitations ont touchés le sol mais que la quantité est inférieure à 0.1 mm.

Récapitulatif de la journée
Température [°C] Vent [km/h] Ensoleillement4 [h] Precipitations totale5 [mm] Pression [Hpa]
Min1 Max.2 Moy.3 Max. Min Max.
3.2 9.8 0 16.7 0 h 0 min 0 1015.8 1028.5

1 Température minimale relevée entre 18:00 UTC la veille et 18:00 UTC le jour donné.

2 Température maximale relevée entre 06:00 UTC le jour donné et 06:00 UTC le lendemain.

3 Vent moyen de la journée basé sur les relevés horaires.

4 Ensoleillement en heures relevé entre 06:00 UTC la veille et 06:00 UTC le jour donné.

5 Précipitations totales tombées entre 06:00 UTC la jour donné et 06:00 UTC le lendemain.

Graphiques horaires